• Join FlightAware (Why Join?)
  • Login
  • US Flag 
11:40AM EDT


 

Airport Tracker/Info


-or-


 

Live Flight TrackerFlight Track Log ✈ N612CT ✈ 16-Jul-2013 ✈ KVNC - KAPF

Flight Track Log - Related Links

Times and Time Zones

All times are in EDT time to prevent confusion due to time zone crossing. See the N612CT flight status page for this flight to view local times or setup timezone preferences in your user account.

Time Position Orientation Groundspeed Altitude Reporting Facility
EDT Latitude Longitude Course Direction KTS MPH feet Rate Location/Type
09:47AM 27.0833 -82.4333 147° Southeast 83 96 700  Level Tampa TRACON
09:48AM 27.0833 -82.4000 90° East 95 109 1,400 660 Climbing Tampa TRACON
09:50AM 27.0290 -82.3909 172° South  Level FlightAware Approximate
09:53AM 26.8343 -82.2702 147° Southeast  Level FlightAware Approximate
09:57AM 26.7498 -82.2087 147° Southeast  Level FlightAware Approximate
09:58AM 26.7114 -82.1808 147° Southeast  Level FlightAware Approximate
09:59AM 26.6730 -82.1529 147° Southeast  Level FlightAware Approximate
10:00AM 26.6346 -82.1251 147° Southeast  Level FlightAware Approximate
10:01AM 26.5962 -82.0972 147° Southeast  Level FlightAware Approximate
10:02AM 26.5577 -82.0694 147° Southeast  Level FlightAware Approximate
10:03AM 26.5193 -82.0416 147° Southeast  Level FlightAware Approximate
10:04AM 26.4809 -82.0138 147° Southeast  Level FlightAware Approximate
10:05AM 26.4424 -81.9860 147° Southeast  Level FlightAware Approximate
10:06AM 26.4040 -81.9583 147° Southeast  Level FlightAware Approximate
10:07AM 26.3655 -81.9305 147° Southeast  Level FlightAware Approximate
10:08AM 26.3271 -81.9028 147° Southeast  Level FlightAware Approximate
10:09AM 26.2890 -81.8745 144° Southeast  Level FlightAware Approximate
10:10AM 26.2518 -81.8447 144° Southeast  Level FlightAware Approximate
10:11AM 26.2145 -81.8151 146° Southeast  Level FlightAware Approximate
10:12AM 26.1765 -81.7866 146° Southeast  Level FlightAware Approximate
10:13AM 26.1500 -81.7667 146° Southeast  Level FlightAware Approximate
10:14AM 26.1524 -81.7756 146° Southeast  Level Estimated
10:15AM 26.1524 -81.7756 146° Southeast  Level Estimated
10:16AM 26.1524 -81.7756 146° Southeast  Level Estimated
10:17AM 26.1524 -81.7756 146° Southeast  Level Estimated
10:18AM 26.1524 -81.7756 146° Southeast  Level Estimated
10:19AM 26.1524 -81.7756 146° Southeast  Level Estimated
10:20AM 26.1524 -81.7756 146° Southeast  Level Estimated
10:21AM 26.1524 -81.7756 146° Southeast  Level Estimated
10:22AM 26.1524 -81.7756 146° Southeast  Level Estimated
10:23AM 26.1524 -81.7756 146° Southeast  Level Estimated
10:24AM 26.1524 -81.7756 146° Southeast  Level Estimated
10:25AM 26.1524 -81.7756 146° Southeast  Level Estimated
10:26AM 26.1524 -81.7756 146° Southeast  Level Estimated